PWSweather.com
Personal Weather Stations
Station Observations
MARICOPA
Cobblestone Farms, Maricopa, AZ 85139

Cobblestone FarmsMaricopa, AZ 85139

Lat: 33.076, Lon: -112.0445

Elevation: 1148

Station Type: LaCrosse 2310/15

http://weather.azkiwis.net

Latest ConditionsUpdated 6:30:20 PM MST Tuesday, Sep 16, 2014
Currently Today's Max Today's Min Today's Average
Temperature 83.7°F28.7°C 89.2°F31.8°C 76.5°F24.7°C 81.7°F27.6°C
Dew Point 70.2°F21.2°C 72.2°F22.3°C 63.4°F17.4°C 69.5°F20.8°C
Winds 0.6 mph NE1.0 kmh NE 11.5 mph SSE18.5 kmh SSE - 2.1 mph 3.4 kmh
Wind Gusts 4.5 mph7.2 kmh 16.3 mph26.2 kmh - -
Humidity 64% 78% 47% 67%
Pressure 29.84 in1010.5 mb 29.97 in1014.9 mb 29.82 in1009.8 mb -
Precipitation - 0.09 in2.3 mm - -
Hour Temp Dew Point Humidity Winds Wind Gusts Pressure Precip Precip Rate Daily Precip Total
06:30 PM 83.7°F28.7°C 70.2°F21.2°C 64% 0.6 mph NE1.0 kmh NE 4.5 mph7.2 kmh 29.84 in1010.5 mb 0.00 in0.0 mm 0.00 in/hr0.0 mm/hr 0.09 in2.3 mm
06:15 PM 83.8°F28.8°C 69.9°F21.1°C 63% 0.3 mph NE0.5 kmh NE 0.7 mph1.1 kmh 29.84 in1010.5 mb 0.00 in0.0 mm 0.00 in/hr0.0 mm/hr 0.09 in2.3 mm
06:00 PM 84.2°F29.0°C 69.8°F21.0°C 62% 0.5 mph WNW0.8 kmh WNW 4.9 mph7.9 kmh 29.83 in1010.2 mb 0.00 in0.0 mm 0.00 in/hr0.0 mm/hr 0.09 in2.3 mm
05:45 PM 84.5°F29.2°C 70.1°F21.2°C 62% 0.3 mph ENE0.5 kmh ENE 2.5 mph4.0 kmh 29.83 in1010.2 mb 0.00 in0.0 mm 0.00 in/hr0.0 mm/hr 0.09 in2.3 mm
05:30 PM 84.7°F29.3°C 70.3°F21.3°C 62% 0.9 mph NE1.4 kmh NE 1.3 mph2.1 kmh 29.83 in1010.2 mb 0.00 in0.0 mm 0.00 in/hr0.0 mm/hr 0.09 in2.3 mm
05:15 PM 85.1°F29.5°C 70.6°F21.4°C 62% 1.1 mph ENE1.8 kmh ENE 2.7 mph4.3 kmh 29.83 in1010.2 mb 0.00 in0.0 mm 0.00 in/hr0.0 mm/hr 0.09 in2.3 mm
05:00 PM 85.1°F29.5°C 70.6°F21.4°C 62% 3.2 mph E5.1 kmh E 4.9 mph7.9 kmh 29.82 in1009.8 mb 0.00 in0.0 mm 0.00 in/hr0.0 mm/hr 0.09 in2.3 mm
04:45 PM 85.1°F29.5°C 71.1°F21.7°C 63% 2.1 mph E3.4 kmh E 4.2 mph6.8 kmh 29.83 in1010.2 mb 0.00 in0.0 mm 0.00 in/hr0.0 mm/hr 0.09 in2.3 mm
04:30 PM 84.6°F29.2°C 71.0°F21.7°C 64% 1.9 mph E3.1 kmh E 4.7 mph7.6 kmh 29.84 in1010.5 mb 0.00 in0.0 mm 0.00 in/hr0.0 mm/hr 0.09 in2.3 mm
04:15 PM 84.2°F29.0°C 71.6°F22.0°C 66% 4.6 mph ENE7.4 kmh ENE 4.9 mph7.9 kmh 29.84 in1010.5 mb 0.00 in0.0 mm 0.00 in/hr0.0 mm/hr 0.09 in2.3 mm
04:00 PM 83.8°F28.8°C 72.1°F22.3°C 68% 2.2 mph ENE3.5 kmh ENE 3.6 mph5.8 kmh 29.85 in1010.8 mb 0.00 in0.0 mm 0.00 in/hr0.0 mm/hr 0.09 in2.3 mm
03:45 PM 83.0°F28.3°C 72.2°F22.3°C 70% 1.6 mph ENE2.6 kmh ENE 2.5 mph4.0 kmh 29.86 in1011.2 mb 0.00 in0.0 mm 0.00 in/hr0.0 mm/hr 0.09 in2.3 mm
03:30 PM 81.9°F27.7°C 72.0°F22.2°C 72% 2.6 mph E4.2 kmh E 5.6 mph9.0 kmh 29.86 in1011.2 mb 0.00 in0.0 mm 0.00 in/hr0.0 mm/hr 0.09 in2.3 mm
03:15 PM 81.0°F27.2°C 71.9°F22.2°C 74% 3.9 mph E6.3 kmh E 5.6 mph9.0 kmh 29.87 in1011.5 mb 0.00 in0.0 mm 0.00 in/hr0.0 mm/hr 0.09 in2.3 mm
03:00 PM 80.1°F26.7°C 72.2°F22.3°C 77% 1.2 mph ENE1.9 kmh ENE 4.2 mph6.8 kmh 29.87 in1011.5 mb 0.00 in0.0 mm 0.00 in/hr0.0 mm/hr 0.09 in2.3 mm
02:45 PM 79.5°F26.4°C 72.1°F22.3°C 78% 1.9 mph NNE3.1 kmh NNE 5.8 mph9.3 kmh 29.88 in1011.9 mb 0.00 in0.0 mm 0.00 in/hr0.0 mm/hr 0.09 in2.3 mm
02:30 PM 78.9°F26.1°C 71.1°F21.7°C 77% 1.5 mph E2.4 kmh E 1.1 mph1.8 kmh 29.88 in1011.9 mb 0.00 in0.0 mm 0.00 in/hr0.0 mm/hr 0.09 in2.3 mm
02:15 PM 78.8°F26.0°C 70.6°F21.4°C 76% 2.3 mph E3.7 kmh E 4.7 mph7.6 kmh 29.89 in1012.2 mb 0.00 in0.0 mm 0.00 in/hr0.0 mm/hr 0.09 in2.3 mm
02:00 PM 79.3°F26.3°C 70.3°F21.3°C 74% 2.8 mph E4.5 kmh E 3.8 mph6.1 kmh 29.91 in1012.9 mb 0.00 in0.0 mm 0.00 in/hr0.0 mm/hr 0.09 in2.3 mm
01:45 PM 80.2°F26.8°C 70.8°F21.6°C 73% 2.1 mph ESE3.4 kmh ESE 1.3 mph2.1 kmh 29.92 in1013.2 mb 0.00 in0.0 mm 0.00 in/hr0.0 mm/hr 0.09 in2.3 mm
01:30 PM 80.8°F27.1°C 70.9°F21.6°C 72% 5.3 mph SE8.5 kmh SE 6.9 mph11.1 kmh 29.93 in1013.5 mb 0.00 in0.0 mm 0.00 in/hr0.0 mm/hr 0.09 in2.3 mm
01:15 PM 80.2°F26.8°C 70.4°F21.3°C 72% 3.7 mph SE6.0 kmh SE 3.8 mph6.1 kmh 29.93 in1013.5 mb 0.03 in0.8 mm 0.12 in/hr3.0 mm/hr 0.09 in2.3 mm
01:00 PM 80.0°F26.7°C 70.9°F21.6°C 74% 4.6 mph ESE7.4 kmh ESE 7.6 mph12.2 kmh 29.93 in1013.5 mb 0.00 in0.0 mm 0.00 in/hr0.0 mm/hr 0.06 in1.5 mm
12:45 PM 79.5°F26.4°C 70.9°F21.6°C 75% 1.3 mph ESE2.1 kmh ESE 3.1 mph5.0 kmh 29.94 in1013.9 mb 0.00 in0.0 mm 0.00 in/hr0.0 mm/hr 0.06 in1.5 mm
12:30 PM 79.3°F26.3°C 71.5°F21.9°C 77% 4.0 mph SE6.4 kmh SE 4.9 mph7.9 kmh 29.94 in1013.9 mb 0.00 in0.0 mm 0.00 in/hr0.0 mm/hr 0.06 in1.5 mm
12:15 PM 79.5°F26.4°C 71.3°F21.8°C 76% 3.1 mph S5.0 kmh S 7.2 mph11.6 kmh 29.95 in1014.2 mb 0.00 in0.0 mm 0.00 in/hr0.0 mm/hr 0.06 in1.5 mm
12:00 PM 79.5°F26.4°C 70.9°F21.6°C 75% 3.1 mph SE5.0 kmh SE 5.8 mph9.3 kmh 29.95 in1014.2 mb 0.00 in0.0 mm 0.00 in/hr0.0 mm/hr 0.06 in1.5 mm
11:45 AM 80.1°F26.7°C 71.1°F21.7°C 74% 1.8 mph SE2.9 kmh SE 2.9 mph4.7 kmh 29.96 in1014.6 mb 0.00 in0.0 mm 0.00 in/hr0.0 mm/hr 0.06 in1.5 mm
11:30 AM 80.8°F27.1°C 70.9°F21.6°C 72% 1.1 mph SSE1.8 kmh SSE 2.5 mph4.0 kmh 29.96 in1014.6 mb 0.00 in0.0 mm 0.00 in/hr0.0 mm/hr 0.06 in1.5 mm
11:15 AM 81.8°F27.7°C 70.6°F21.4°C 69% 1.8 mph SSE2.9 kmh SSE 4.9 mph7.9 kmh 29.96 in1014.6 mb 0.03 in0.8 mm 0.12 in/hr3.0 mm/hr 0.06 in1.5 mm
11:00 AM 82.8°F28.2°C 69.8°F21.0°C 65% 6.0 mph SE9.7 kmh SE 7.6 mph12.2 kmh 29.96 in1014.6 mb 0.03 in0.8 mm 0.04 in/hr1.0 mm/hr 0.06 in1.5 mm
10:45 AM 82.9°F28.3°C 69.0°F20.6°C 63% 6.0 mph SSE9.7 kmh SSE 6.3 mph10.1 kmh 29.96 in1014.6 mb 0.00 in0.0 mm 0.00 in/hr0.0 mm/hr 0.03 in0.8 mm
10:30 AM 83.7°F28.7°C 68.8°F20.4°C 61% 5.4 mph SSE8.7 kmh SSE 9.2 mph14.8 kmh 29.96 in1014.6 mb 0.00 in0.0 mm 0.00 in/hr0.0 mm/hr 0.03 in0.8 mm
10:15 AM 83.9°F28.8°C 67.6°F19.8°C 58% 7.4 mph S11.9 kmh S 11.4 mph18.3 kmh 29.97 in1014.9 mb 0.00 in0.0 mm 0.00 in/hr0.0 mm/hr 0.03 in0.8 mm
10:00 AM 84.2°F29.0°C 67.8°F19.9°C 58% 6.9 mph S11.1 kmh S 16.3 mph26.2 kmh 29.97 in1014.9 mb 0.00 in0.0 mm 0.00 in/hr0.0 mm/hr 0.03 in0.8 mm
09:45 AM 84.5°F29.2°C 69.5°F20.8°C 61% 11.5 mph SSE18.5 kmh SSE 10.9 mph17.5 kmh 29.96 in1014.6 mb 0.00 in0.0 mm 0.00 in/hr0.0 mm/hr 0.03 in0.8 mm
09:30 AM 84.0°F28.9°C 71.0°F21.7°C 65% 0.5 mph SE0.8 kmh SE 2.9 mph4.7 kmh 29.96 in1014.6 mb 0.00 in0.0 mm 0.00 in/hr0.0 mm/hr 0.03 in0.8 mm
09:15 AM 83.4°F28.6°C 70.4°F21.3°C 65% 0.1 mph E0.2 kmh E 0.7 mph1.1 kmh 29.95 in1014.2 mb 0.00 in0.0 mm 0.00 in/hr0.0 mm/hr 0.03 in0.8 mm
09:00 AM 82.8°F28.2°C 69.9°F21.1°C 65% Calm Calm -- 29.95 in1014.2 mb 0.00 in0.0 mm 0.00 in/hr0.0 mm/hr 0.03 in0.8 mm
08:45 AM 82.4°F28.0°C 69.9°F21.1°C 66% 0.3 mph N0.5 kmh N 1.8 mph2.9 kmh 29.95 in1014.2 mb 0.00 in0.0 mm 0.00 in/hr0.0 mm/hr 0.03 in0.8 mm
08:30 AM 81.6°F27.6°C 69.6°F20.9°C 67% 0.1 mph N0.2 kmh N 0.9 mph1.4 kmh 29.95 in1014.2 mb 0.00 in0.0 mm 0.00 in/hr0.0 mm/hr 0.03 in0.8 mm
08:15 AM 81.0°F27.2°C 69.8°F21.0°C 69% 0.1 mph NNE0.2 kmh NNE 0.9 mph1.4 kmh 29.94 in1013.9 mb 0.00 in0.0 mm 0.00 in/hr0.0 mm/hr 0.03 in0.8 mm
08:00 AM 80.2°F26.8°C 70.4°F21.3°C 72% Calm Calm -- 29.95 in1014.2 mb 0.00 in0.0 mm 0.00 in/hr0.0 mm/hr 0.03 in0.8 mm
07:45 AM 79.3°F26.3°C 69.9°F21.1°C 73% Calm Calm -- 29.94 in1013.9 mb 0.00 in0.0 mm 0.00 in/hr0.0 mm/hr 0.03 in0.8 mm
07:30 AM 78.8°F26.0°C 69.4°F20.8°C 73% Calm Calm -- 29.94 in1013.9 mb 0.00 in0.0 mm 0.00 in/hr0.0 mm/hr 0.03 in0.8 mm
07:15 AM 78.3°F25.7°C 68.5°F20.3°C 72% Calm Calm -- 29.94 in1013.9 mb 0.00 in0.0 mm 0.00 in/hr0.0 mm/hr 0.03 in0.8 mm
07:00 AM 77.9°F25.5°C 68.5°F20.3°C 73% Calm Calm -- 29.94 in1013.9 mb 0.00 in0.0 mm 0.00 in/hr0.0 mm/hr 0.03 in0.8 mm
06:45 AM 77.7°F25.4°C 68.8°F20.4°C 74% Calm Calm -- 29.93 in1013.5 mb 0.00 in0.0 mm 0.00 in/hr0.0 mm/hr 0.03 in0.8 mm
06:30 AM 77.5°F25.3°C 69.4°F20.8°C 76% Calm Calm -- 29.93 in1013.5 mb 0.00 in0.0 mm 0.00 in/hr0.0 mm/hr 0.03 in0.8 mm
06:15 AM 77.5°F25.3°C 69.8°F21.0°C 77% Calm Calm -- 29.93 in1013.5 mb 0.00 in0.0 mm 0.00 in/hr0.0 mm/hr 0.03 in0.8 mm
06:00 AM 77.2°F25.1°C 69.0°F20.6°C 76% 1.0 mph W1.6 kmh W 2.2 mph3.5 kmh 29.93 in1013.5 mb 0.00 in0.0 mm 0.00 in/hr0.0 mm/hr 0.03 in0.8 mm
05:45 AM 77.0°F25.0°C 68.9°F20.5°C 76% Calm Calm -- 29.92 in1013.2 mb 0.00 in0.0 mm 0.00 in/hr0.0 mm/hr 0.03 in0.8 mm
05:30 AM 76.6°F24.8°C 68.9°F20.5°C 77% Calm Calm -- 29.91 in1012.9 mb 0.00 in0.0 mm 0.00 in/hr0.0 mm/hr 0.03 in0.8 mm
05:15 AM 76.6°F24.8°C 69.3°F20.7°C 78% Calm Calm -- 29.90 in1012.5 mb 0.00 in0.0 mm 0.00 in/hr0.0 mm/hr 0.03 in0.8 mm
05:00 AM 76.5°F24.7°C 69.1°F20.6°C 78% Calm Calm -- 29.90 in1012.5 mb 0.00 in0.0 mm 0.00 in/hr0.0 mm/hr 0.03 in0.8 mm
04:45 AM 76.6°F24.8°C 69.3°F20.7°C 78% Calm Calm -- 29.90 in1012.5 mb 0.00 in0.0 mm 0.00 in/hr0.0 mm/hr 0.03 in0.8 mm
04:30 AM 76.6°F24.8°C 68.9°F20.5°C 77% Calm Calm -- 29.89 in1012.2 mb 0.00 in0.0 mm 0.00 in/hr0.0 mm/hr 0.03 in0.8 mm
04:15 AM 76.8°F24.9°C 68.7°F20.4°C 76% Calm Calm -- 29.89 in1012.2 mb 0.00 in0.0 mm 0.00 in/hr0.0 mm/hr 0.03 in0.8 mm
04:00 AM 77.4°F25.2°C 68.8°F20.4°C 75% 1.5 mph NW2.4 kmh NW -- 29.89 in1012.2 mb 0.00 in0.0 mm 0.00 in/hr0.0 mm/hr 0.03 in0.8 mm
03:45 AM 78.1°F25.6°C 69.1°F20.6°C 74% Calm Calm -- 29.89 in1012.2 mb 0.00 in0.0 mm 0.00 in/hr0.0 mm/hr 0.03 in0.8 mm
03:30 AM 79.0°F26.1°C 68.8°F20.4°C 71% 0.2 mph SSE0.3 kmh SSE 1.3 mph2.1 kmh 29.89 in1012.2 mb 0.00 in0.0 mm 0.00 in/hr0.0 mm/hr 0.03 in0.8 mm
03:15 AM 80.6°F27.0°C 68.2°F20.1°C 66% 0.4 mph SW0.6 kmh SW 6.9 mph11.1 kmh 29.90 in1012.5 mb 0.00 in0.0 mm 0.00 in/hr0.0 mm/hr 0.03 in0.8 mm
03:00 AM 83.7°F28.7°C 68.3°F20.2°C 60% 3.5 mph S5.6 kmh S 4.2 mph6.8 kmh 29.89 in1012.2 mb 0.03 in0.8 mm 0.04 in/hr1.0 mm/hr 0.03 in0.8 mm
02:45 AM 84.2°F29.0°C 64.1°F17.8°C 51% 2.6 mph SE4.2 kmh SE 4.5 mph7.2 kmh 29.90 in1012.5 mb 0.00 in0.0 mm 0.00 in/hr0.0 mm/hr 0.00 in0.0 mm
02:30 AM 84.4°F29.1°C 63.7°F17.6°C 50% 2.9 mph SE4.7 kmh SE 4.0 mph6.4 kmh 29.90 in1012.5 mb 0.00 in0.0 mm 0.00 in/hr0.0 mm/hr 0.00 in0.0 mm
02:15 AM 84.7°F29.3°C 63.5°F17.5°C 49% 2.8 mph SE4.5 kmh SE 5.6 mph9.0 kmh 29.89 in1012.2 mb 0.00 in0.0 mm 0.00 in/hr0.0 mm/hr 0.00 in0.0 mm
02:00 AM 85.3°F29.6°C 63.4°F17.4°C 48% 3.7 mph SSE6.0 kmh SSE 6.5 mph10.5 kmh 29.89 in1012.2 mb 0.00 in0.0 mm 0.00 in/hr0.0 mm/hr 0.00 in0.0 mm
01:45 AM 85.9°F29.9°C 63.4°F17.4°C 47% 3.9 mph ESE6.3 kmh ESE 5.6 mph9.0 kmh 29.89 in1012.2 mb 0.00 in0.0 mm 0.00 in/hr0.0 mm/hr 0.00 in0.0 mm
01:30 AM 86.7°F30.4°C 67.0°F19.4°C 52% 2.4 mph SE3.9 kmh SE 7.8 mph12.6 kmh 29.89 in1012.2 mb 0.00 in0.0 mm 0.00 in/hr0.0 mm/hr 0.00 in0.0 mm
01:15 AM 87.4°F30.8°C 68.2°F20.1°C 53% 2.1 mph SE3.4 kmh SE 6.3 mph10.1 kmh 29.88 in1011.9 mb 0.00 in0.0 mm 0.00 in/hr0.0 mm/hr 0.00 in0.0 mm
01:00 AM 87.8°F31.0°C 68.5°F20.3°C 53% 3.1 mph S5.0 kmh S 3.6 mph5.8 kmh 29.88 in1011.9 mb 0.00 in0.0 mm 0.00 in/hr0.0 mm/hr 0.00 in0.0 mm
12:45 AM 88.2°F31.2°C 68.9°F20.5°C 53% 3.9 mph S6.3 kmh S 9.6 mph15.4 kmh 29.87 in1011.5 mb 0.00 in0.0 mm 0.00 in/hr0.0 mm/hr 0.00 in0.0 mm
12:30 AM 88.3°F31.3°C 68.5°F20.3°C 52% 3.9 mph SSW6.3 kmh SSW 3.6 mph5.8 kmh 29.87 in1011.5 mb 0.00 in0.0 mm 0.00 in/hr0.0 mm/hr 0.00 in0.0 mm
12:15 AM 88.9°F31.6°C 69.0°F20.6°C 52% 7.7 mph SSE12.4 kmh SSE 9.8 mph15.8 kmh 29.86 in1011.2 mb 0.00 in0.0 mm 0.00 in/hr0.0 mm/hr 0.00 in0.0 mm
12:00 AM 89.2°F31.8°C 70.4°F21.3°C 54% 3.9 mph S6.3 kmh S 12.5 mph20.1 kmh 29.86 in1011.2 mb 0.00 in0.0 mm 0.00 in/hr0.0 mm/hr 0.00 in0.0 mm